Terminal Aerodrome Forecast
Issued by NWS

Home | Current Version | Previous Version | Text Only | Print | Product List | Glossary Off
Versions: 1 2 3 4 5 6 7 8 9 10 11 12 13 14 15 16 17 18 19 20

000
FTUS43 KGRB 290502 AAB
TAFCWA
TAF AMD
KCWA 290502Z 2905/2924 06004KT P6SM SCT010 OVC030
      TEMPO 2905/2907 -SHRA BKN010
     FM290700 00000KT P6SM OVC050
     FM291600 05007KT P6SM BKN060
     FM291700 05008KT P6SM SCT070
     FM292000 08007KT P6SM SCT080
      AMD LTD TO CLD VIS AND WIND TIL 291100=

USA.gov is the U.S. government's official web portal to all federal, state and local government web resources and services.